Time,TemperatureF,DewpointF,PressureIn,WindDirection,WindDirectionDegrees,WindSpeedMPH,WindSpeedGustMPH,Humidity,HourlyPrecipIn,Conditions,Clouds,dailyrainin,SolarRadiationWatts/m^2,SoftwareType,DateUTC
2013-05-26 00:31:00,57.0,29.0,30.07,NNW,335,2.0,4.0,34,-99.99,,,-99.99,0.000000,,2013-05-26 07:31:00,
2013-05-26 01:21:00,55.0,30.0,30.08,ENE,66,3.0,5.0,38,-99.99,,,-99.99,0.000000,,2013-05-26 08:21:00,
2013-05-26 03:22:00,52.0,33.0,30.07,North,357,3.0,4.0,49,-99.99,,,-99.99,0.000000,,2013-05-26 10:22:00,
2013-05-26 04:22:00,51.0,36.0,30.07,NW,315,9.0,13.0,57,-99.99,,,-99.99,0.000000,,2013-05-26 11:22:00,
2013-05-26 05:21:00,52.0,38.0,30.07,NW,310,7.0,17.0,59,-99.99,,,-99.99,0.000000,,2013-05-26 12:21:00,
2013-05-26 05:40:00,52.0,41.0,30.07,WNW,303,7.0,12.0,66,-99.99,,,-99.99,0.000000,,2013-05-26 12:40:00,
2013-05-26 06:21:00,52.0,41.0,30.07,WNW,303,7.0,12.0,66,-99.99,,,-99.99,0.000000,,2013-05-26 13:21:00,
2013-05-26 06:40:00,51.0,42.0,30.08,WNW,297,5.0,12.0,70,-99.99,,,-99.99,20.000000,,2013-05-26 13:40:00,
2013-05-26 07:21:00,51.0,42.0,30.08,WNW,297,5.0,12.0,70,-99.99,,,-99.99,20.000000,,2013-05-26 14:21:00,
2013-05-26 07:40:00,54.0,41.0,30.09,WNW,292,7.0,18.0,60,-99.99,,,-99.99,332.000000,,2013-05-26 14:40:00,
2013-05-26 08:22:00,54.0,41.0,30.09,WNW,292,7.0,18.0,60,-99.99,,,-99.99,332.000000,,2013-05-26 15:22:00,
2013-05-26 08:40:00,56.0,41.0,30.11,WNW,300,7.0,13.0,58,-99.99,,,-99.99,559.000000,,2013-05-26 15:40:00,
2013-05-26 09:23:00,56.0,41.0,30.11,WNW,300,7.0,13.0,58,-99.99,,,-99.99,559.000000,,2013-05-26 16:23:00,
2013-05-26 09:33:00,56.0,41.0,30.11,WNW,300,7.0,13.0,58,-99.99,,,-99.99,559.000000,,2013-05-26 16:33:00,
2013-05-26 09:40:00,57.0,43.0,30.13,West,270,4.0,9.0,58,-99.99,,,-99.99,759.000000,,2013-05-26 16:40:00,
2013-05-26 10:22:00,57.0,43.0,30.13,West,270,4.0,9.0,58,-99.99,,,-99.99,759.000000,,2013-05-26 17:22:00,
2013-05-26 10:32:00,57.0,43.0,30.13,West,270,4.0,9.0,58,-99.99,,,-99.99,759.000000,,2013-05-26 17:32:00,
2013-05-26 10:40:00,60.0,44.0,30.13,WNW,289,4.0,9.0,55,-99.99,,,-99.99,936.000000,,2013-05-26 17:40:00,
2013-05-26 11:21:00,60.0,44.0,30.13,WNW,289,4.0,9.0,55,-99.99,,,-99.99,936.000000,,2013-05-26 18:21:00,
2013-05-26 11:31:00,60.0,44.0,30.13,WNW,289,4.0,9.0,55,-99.99,,,-99.99,936.000000,,2013-05-26 18:31:00,
2013-05-26 11:40:00,60.0,45.0,30.14,West,278,6.0,10.0,59,-99.99,,,-99.99,1034.000000,,2013-05-26 18:40:00,
2013-05-26 12:22:00,60.0,45.0,30.14,West,278,6.0,10.0,59,-99.99,,,-99.99,1034.000000,,2013-05-26 19:22:00,
2013-05-26 12:32:00,60.0,45.0,30.14,West,278,6.0,10.0,59,-99.99,,,-99.99,1034.000000,,2013-05-26 19:32:00,
2013-05-26 12:40:00,62.0,46.0,30.14,West,268,5.0,12.0,55,-99.99,,,-99.99,1060.000000,,2013-05-26 19:40:00,
2013-05-26 13:21:00,62.0,46.0,30.14,West,268,5.0,12.0,55,-99.99,,,-99.99,1060.000000,,2013-05-26 20:21:00,
2013-05-26 13:32:00,62.0,46.0,30.14,West,268,5.0,12.0,55,-99.99,,,-99.99,1060.000000,,2013-05-26 20:32:00,
2013-05-26 13:40:00,62.0,46.0,30.14,West,262,6.0,9.0,56,-99.99,,,-99.99,1045.000000,,2013-05-26 20:40:00,
2013-05-26 14:22:00,62.0,46.0,30.14,West,262,6.0,9.0,56,-99.99,,,-99.99,1045.000000,,2013-05-26 21:22:00,
2013-05-26 14:33:00,62.0,46.0,30.14,West,262,6.0,9.0,56,-99.99,,,-99.99,1045.000000,,2013-05-26 21:33:00,
2013-05-26 14:40:00,65.0,47.0,30.13,WNW,286,7.0,12.0,53,-99.99,,,-99.99,976.000000,,2013-05-26 21:40:00,
2013-05-26 15:23:00,65.0,47.0,30.13,WNW,286,7.0,12.0,53,-99.99,,,-99.99,976.000000,,2013-05-26 22:23:00,
2013-05-26 15:33:00,65.0,47.0,30.13,WNW,286,7.0,12.0,53,-99.99,,,-99.99,976.000000,,2013-05-26 22:33:00,
2013-05-26 15:40:00,64.0,47.0,30.13,WNW,282,4.0,8.0,54,-99.99,,,-99.99,789.000000,,2013-05-26 22:40:00,
2013-05-26 16:22:00,64.0,47.0,30.13,WNW,282,4.0,8.0,54,-99.99,,,-99.99,789.000000,,2013-05-26 23:22:00,
2013-05-26 16:32:00,64.0,47.0,30.13,WNW,282,4.0,8.0,54,-99.99,,,-99.99,789.000000,,2013-05-26 23:32:00,
2013-05-26 16:40:00,63.0,47.0,30.12,WNW,282,6.0,11.0,56,-99.99,,,-99.99,621.000000,,2013-05-26 23:40:00,
2013-05-26 17:31:00,63.0,47.0,30.12,WNW,282,6.0,11.0,56,-99.99,,,-99.99,621.000000,,2013-05-27 00:31:00,
2013-05-26 17:40:00,63.0,47.0,30.12,West,270,3.0,7.0,56,-99.99,,,-99.99,392.000000,,2013-05-27 00:40:00,
2013-05-26 18:22:00,63.0,47.0,30.12,West,270,3.0,7.0,56,-99.99,,,-99.99,392.000000,,2013-05-27 01:22:00,
2013-05-26 18:31:00,63.0,47.0,30.12,West,270,3.0,7.0,56,-99.99,,,-99.99,392.000000,,2013-05-27 01:31:00,
2013-05-26 18:40:00,61.0,47.0,30.11,West,261,5.0,8.0,61,-99.99,,,-99.99,334.000000,,2013-05-27 01:40:00,
2013-05-26 19:21:00,61.0,47.0,30.11,West,261,5.0,8.0,61,-99.99,,,-99.99,334.000000,,2013-05-27 02:21:00,
2013-05-26 19:32:00,61.0,47.0,30.11,West,261,5.0,8.0,61,-99.99,,,-99.99,334.000000,,2013-05-27 02:32:00,
2013-05-26 19:40:00,57.0,46.0,30.12,WNW,303,3.0,6.0,68,-99.99,,,-99.99,88.000000,,2013-05-27 02:40:00,
2013-05-26 20:21:00,57.0,46.0,30.12,WNW,303,3.0,6.0,68,-99.99,,,-99.99,88.000000,,2013-05-27 03:21:00,
2013-05-26 20:33:00,57.0,46.0,30.12,WNW,303,3.0,6.0,68,-99.99,,,-99.99,88.000000,,2013-05-27 03:33:00,
2013-05-26 20:40:00,53.0,47.0,30.13,NW,309,6.0,7.0,79,-99.99,,,-99.99,0.000000,,2013-05-27 03:40:00,
2013-05-26 21:23:00,53.0,47.0,30.13,NW,309,6.0,7.0,79,-99.99,,,-99.99,0.000000,,2013-05-27 04:23:00,
2013-05-26 21:33:00,53.0,47.0,30.13,NW,309,6.0,7.0,79,-99.99,,,-99.99,0.000000,,2013-05-27 04:33:00,
2013-05-26 21:40:00,53.0,45.0,30.14,NW,308,5.0,8.0,75,-99.99,,,-99.99,0.000000,,2013-05-27 04:40:00,
2013-05-26 22:22:00,53.0,45.0,30.14,NW,308,5.0,8.0,75,-99.99,,,-99.99,0.000000,,2013-05-27 05:22:00,
2013-05-26 22:32:00,53.0,45.0,30.14,NW,308,5.0,8.0,75,-99.99,,,-99.99,0.000000,,2013-05-27 05:32:00,
2013-05-26 22:40:00,51.0,41.0,30.15,NW,310,6.0,7.0,69,-99.99,,,-99.99,0.000000,,2013-05-27 05:40:00,
2013-05-26 23:21:00,51.0,41.0,30.15,NW,310,6.0,7.0,69,-99.99,,,-99.99,0.000000,,2013-05-27 06:21:00,
2013-05-26 23:32:00,51.0,41.0,30.15,NW,310,6.0,7.0,69,-99.99,,,-99.99,0.000000,,2013-05-27 06:32:00,
2013-05-26 23:40:00,52.0,39.0,30.14,NNW,342,7.0,9.0,62,-99.99,,,-99.99,0.000000,,2013-05-27 06:40:00,